Time;durP1;ratioP1;P1;durP2;ratioP2;P2;SDS_P1;SDS_P2;PMS_P1;PMS_P2;Temp;Humidity;BMP_temperature;BMP_pressure;BME280_temperature;BME280_humidity;BME280_pressure;Samples;Min_cycle;Max_cycle;Signal;HPM_P1;HPM_P2
2022/08/06 00:01:49;;;;;;;2.50;1.20;;;;;;;13.81;86.33;102307.75;5069066;28;20212;-71
2022/08/06 00:04:15;;;;;;;2.37;1.20;;;;;;;13.79;86.52;102319.69;5069142;28;20228;-70
2022/08/06 00:06:41;;;;;;;2.87;1.30;;;;;;;13.78;86.48;102328.25;5068671;28;20246;-71
2022/08/06 00:09:06;;;;;;;2.30;1.17;;;;;;;13.76;86.19;102325.63;5068981;28;20188;-72
2022/08/06 00:11:32;;;;;;;4.93;1.30;;;;;;;13.74;86.26;102324.72;5068939;28;20284;-72
2022/08/06 00:13:57;;;;;;;2.13;1.10;;;;;;;13.71;86.41;102324.59;5069125;28;20212;-71
2022/08/06 00:16:23;;;;;;;2.20;1.30;;;;;;;13.68;86.12;102319.34;5068402;28;20193;-71
2022/08/06 00:18:48;;;;;;;2.97;1.50;;;;;;;13.69;86.40;102327.97;5068609;28;20558;-72
2022/08/06 00:21:14;;;;;;;3.80;1.20;;;;;;;13.68;86.68;102321.91;5068953;28;20253;-71
2022/08/06 00:23:39;;;;;;;4.50;1.37;;;;;;;13.64;86.72;102327.84;5069376;28;20286;-71
2022/08/06 00:26:05;;;;;;;2.97;1.50;;;;;;;13.60;86.47;102328.56;5069526;28;20190;-71
2022/08/06 00:28:30;;;;;;;4.30;1.30;;;;;;;13.57;86.90;102340.44;5068788;28;20553;-70
2022/08/06 00:30:56;;;;;;;3.33;1.70;;;;;;;13.55;86.88;102337.84;5068435;28;20778;-72
2022/08/06 00:33:21;;;;;;;3.77;1.40;;;;;;;13.56;86.79;102339.59;5068683;28;20201;-71
2022/08/06 00:35:47;;;;;;;3.13;1.33;;;;;;;13.52;86.95;102332.59;5068866;28;20185;-72
2022/08/06 00:38:12;;;;;;;3.23;1.10;;;;;;;13.51;87.36;102342.84;5068631;28;20295;-72
2022/08/06 00:40:41;;;;;;;1.87;1.33;;;;;;;13.48;87.43;102340.19;5068850;28;20218;-72
2022/08/06 00:43:06;;;;;;;5.50;1.50;;;;;;;13.49;88.30;102341.91;5069229;28;20599;-71
2022/08/06 00:45:33;;;;;;;2.57;1.20;;;;;;;13.47;88.42;102347.00;5068575;28;20315;-71
2022/08/06 00:48:00;;;;;;;3.03;1.30;;;;;;;13.49;87.77;102341.91;5068758;28;20237;-72
2022/08/06 00:50:26;;;;;;;5.77;1.47;;;;;;;13.47;88.16;102361.56;5070950;28;20189;-71
2022/08/06 00:52:52;;;;;;;4.13;1.10;;;;;;;13.48;88.15;102363.34;5072394;28;20219;-72
2022/08/06 00:55:17;;;;;;;2.60;1.57;;;;;;;13.46;88.37;102357.25;5071819;28;20215;-71
2022/08/06 00:57:43;;;;;;;4.30;1.50;;;;;;;13.45;88.59;102365.81;5070785;28;20215;-72
2022/08/06 01:00:09;;;;;;;3.97;1.73;;;;;;;13.44;88.18;102367.50;5071848;28;20189;-72
2022/08/06 01:02:34;;;;;;;2.73;1.10;;;;;;;13.41;88.68;102366.53;5071950;28;20215;-71
2022/08/06 01:05:01;;;;;;;3.47;1.60;;;;;;;13.37;89.28;102377.53;5072265;28;20189;-72
2022/08/06 01:07:27;;;;;;;3.80;1.73;;;;;;;13.35;89.02;102376.63;5071983;28;20667;-70
2022/08/06 01:09:53;;;;;;;2.80;1.23;;;;;;;13.35;89.77;102384.34;5081187;28;20238;-72
2022/08/06 01:12:18;;;;;;;2.77;1.40;;;;;;;13.36;89.41;102383.53;5078815;28;20205;-71
2022/08/06 01:14:44;;;;;;;4.43;1.50;;;;;;;13.33;89.43;102391.13;5082497;28;20213;-72
2022/08/06 01:17:47;;;;;;;4.53;1.17;;;;;;;13.28;90.12;102390.09;5073067;28;20220;-71
2022/08/06 01:20:38;;;;;;;6.07;1.90;;;;;;;13.27;89.96;102388.38;5067183;28;20267;-70
2022/08/06 01:23:31;;;;;;;7.57;1.53;;;;;;;13.28;89.64;102387.53;5071614;28;20185;-71
2022/08/06 01:26:28;;;;;;;3.90;1.70;;;;;;;13.24;89.63;102391.72;5072677;28;20235;-71
2022/08/06 01:29:14;;;;;;;3.70;1.53;;;;;;;13.21;90.22;102399.31;5071026;28;20186;-71
2022/08/06 01:31:59;;;;;;;2.93;1.30;;;;;;;13.24;90.07;102398.53;5070953;28;20757;-71
2022/08/06 01:34:35;;;;;;;4.13;1.60;;;;;;;13.22;90.04;102389.91;5071773;28;20208;-71
2022/08/06 01:37:22;;;;;;;3.00;1.20;;;;;;;13.21;90.19;102395.88;5071937;28;20184;-70
2022/08/06 01:39:52;;;;;;;4.37;1.47;;;;;;;13.17;90.21;102388.88;5072542;28;20177;-71
2022/08/06 01:42:20;;;;;;;6.20;1.70;;;;;;;13.14;90.21;102397.38;5072027;28;20702;-70
2022/08/06 01:44:48;;;;;;;2.80;1.50;;;;;;;13.11;89.65;102394.69;5072454;28;20181;-71
2022/08/06 01:47:18;;;;;;;2.53;1.30;;;;;;;13.07;90.19;102392.81;5070956;28;20263;-71
2022/08/06 01:49:51;;;;;;;3.80;1.30;;;;;;;13.08;90.22;102404.00;5071351;28;20189;-71
2022/08/06 01:52:19;;;;;;;2.20;1.30;;;;;;;13.04;89.79;102402.13;5071392;28;20752;-71
2022/08/06 01:54:47;;;;;;;5.03;1.67;;;;;;;13.02;89.81;102404.66;5071264;28;20209;-71
2022/08/06 01:57:17;;;;;;;3.03;1.30;;;;;;;12.99;89.91;102398.53;5071092;28;20177;-70
2022/08/06 01:59:46;;;;;;;5.13;1.40;;;;;;;13.00;89.55;102406.31;5071159;28;20192;-70
2022/08/06 02:02:17;;;;;;;7.00;1.40;;;;;;;12.99;89.79;102408.81;5070410;28;20205;-71
2022/08/06 02:04:45;;;;;;;5.63;1.60;;;;;;;12.93;90.12;102407.75;5071259;28;20239;-71
2022/08/06 02:07:14;;;;;;;3.20;1.30;;;;;;;12.93;90.29;102411.16;5070934;28;20181;-71
2022/08/06 02:09:43;;;;;;;3.80;1.47;;;;;;;12.90;89.93;102411.94;5071104;28;20184;-71
2022/08/06 02:12:14;;;;;;;2.43;1.43;;;;;;;12.88;89.93;102417.84;5071217;28;20197;-71
2022/08/06 02:14:46;;;;;;;3.73;1.60;;;;;;;12.80;90.77;102410.72;5070793;28;20304;-71
2022/08/06 02:17:13;;;;;;;3.67;1.20;;;;;;;12.76;90.28;102403.72;5081913;28;20260;-71
2022/08/06 02:19:42;;;;;;;2.70;1.77;;;;;;;12.75;90.74;102408.78;5063052;28;20279;-71
2022/08/06 02:22:08;;;;;;;3.50;1.60;;;;;;;12.70;91.03;102407.75;5070665;28;20746;-71
2022/08/06 02:24:35;;;;;;;7.27;1.60;;;;;;;12.70;90.69;102413.78;5071021;28;20185;-70
2022/08/06 02:27:02;;;;;;;2.27;1.40;;;;;;;12.72;90.80;102422.41;5070934;28;20192;-71
2022/08/06 02:29:31;;;;;;;4.90;1.70;;;;;;;12.65;91.22;102417.00;5071316;28;20553;-70
2022/08/06 02:31:57;;;;;;;3.20;1.70;;;;;;;12.59;91.49;102419.34;5074900;28;20212;-72
2022/08/06 02:34:22;;;;;;;4.23;1.47;;;;;;;12.59;91.40;102416.78;5083634;28;20679;-72
2022/08/06 02:36:58;;;;;;;3.63;1.80;;;;;;;12.57;91.82;102415.84;5083609;28;20192;-71
2022/08/06 02:39:29;;;;;;;6.10;2.33;;;;;;;12.57;91.83;102427.00;5070783;28;20173;-71
2022/08/06 02:42:06;;;;;;;2.83;1.70;;;;;;;12.56;91.68;102432.09;5070519;28;20231;-70
2022/08/06 02:44:52;;;;;;;3.13;1.60;;;;;;;12.56;91.87;102429.50;5070591;28;20187;-71
2022/08/06 02:47:23;;;;;;;4.57;1.90;;;;;;;12.54;92.08;102426.88;5045783;28;20193;-69
2022/08/06 02:49:52;;;;;;;2.83;1.40;;;;;;;12.56;92.74;102425.25;5059725;28;20522;-71
2022/08/06 02:52:25;;;;;;;4.67;2.20;;;;;;;12.56;92.74;102432.97;5069906;28;20227;-71
2022/08/06 02:54:59;;;;;;;3.73;1.97;;;;;;;12.56;93.27;102426.94;5060173;28;20570;-72
2022/08/06 02:57:31;;;;;;;3.83;1.83;;;;;;;12.52;93.26;102425.06;5069910;28;20184;-71
2022/08/06 03:00:03;;;;;;;3.73;2.07;;;;;;;12.46;93.38;102425.75;5070306;28;20173;-71
2022/08/06 03:02:31;;;;;;;3.23;1.80;;;;;;;12.51;93.55;102413.94;5070390;28;20580;-70
2022/08/06 03:04:59;;;;;;;5.47;2.30;;;;;;;12.47;93.74;102424.03;5070187;28;20179;-71
2022/08/06 03:07:27;;;;;;;4.77;2.03;;;;;;;12.45;93.73;102431.69;5069895;28;20181;-70
2022/08/06 03:09:54;;;;;;;4.63;2.10;;;;;;;12.40;93.75;102430.63;5070134;28;20200;-72
2022/08/06 03:12:20;;;;;;;4.70;1.87;;;;;;;12.38;93.75;102436.53;5049438;28;20322;-71
2022/08/06 03:14:48;;;;;;;2.90;2.40;;;;;;;12.39;93.52;102441.75;5050101;28;20279;-72
2022/08/06 03:17:16;;;;;;;3.20;2.00;;;;;;;12.37;93.55;102438.25;5050162;28;20829;-71
2022/08/06 03:19:44;;;;;;;3.87;2.30;;;;;;;12.36;93.42;102438.19;5050279;28;20259;-70
2022/08/06 03:22:11;;;;;;;5.53;2.27;;;;;;;12.29;93.39;102442.22;5049934;28;20228;-70
2022/08/06 03:24:39;;;;;;;3.37;1.97;;;;;;;12.28;93.49;102444.72;5049921;28;20227;-71
2022/08/06 03:27:06;;;;;;;3.97;1.90;;;;;;;12.26;93.68;102448.94;5049500;28;20739;-71
2022/08/06 03:29:35;;;;;;;2.47;1.90;;;;;;;12.22;94.05;102442.78;5049708;28;20204;-69
2022/08/06 03:32:01;;;;;;;2.97;1.93;;;;;;;12.22;93.82;102453.06;5049802;28;20249;-71
2022/08/06 03:34:29;;;;;;;6.33;2.57;;;;;;;12.21;93.81;102447.88;5076920;28;20269;-71
2022/08/06 03:36:56;;;;;;;4.87;2.73;;;;;;;12.22;94.02;102449.63;5067320;28;20212;-70
2022/08/06 03:39:25;;;;;;;6.13;2.00;;;;;;;12.20;94.14;102464.97;5069588;28;20239;-70
2022/08/06 03:41:52;;;;;;;4.20;2.20;;;;;;;12.19;93.70;102464.91;5069636;28;20216;-72
2022/08/06 03:44:18;;;;;;;2.93;2.07;;;;;;;12.16;94.33;102465.66;5069630;28;20203;-71
2022/08/06 03:46:48;;;;;;;4.57;2.23;;;;;;;12.15;94.29;102471.63;5069426;28;20184;-72
2022/08/06 03:49:27;;;;;;;3.40;2.00;;;;;;;12.15;94.32;102471.63;5069545;28;20556;-72
2022/08/06 03:51:56;;;;;;;5.83;2.60;;;;;;;12.16;94.50;102478.50;5069767;28;20219;-71
2022/08/06 03:54:27;;;;;;;5.30;2.30;;;;;;;12.13;94.43;102485.22;5082477;28;20601;-71
2022/08/06 03:56:56;;;;;;;3.63;2.67;;;;;;;12.12;94.58;102479.19;5069518;28;20197;-71
2022/08/06 03:59:23;;;;;;;2.83;2.20;;;;;;;12.13;94.57;102480.09;5069301;28;20181;-72
2022/08/06 04:01:49;;;;;;;4.67;2.30;;;;;;;12.13;94.84;102475.81;5068887;28;20204;-71
2022/08/06 04:04:15;;;;;;;4.77;2.47;;;;;;;12.11;95.07;102480.03;5067824;28;20191;-72
2022/08/06 04:06:43;;;;;;;4.37;2.90;;;;;;;12.12;94.91;102481.78;5069191;28;20197;-71
2022/08/06 04:09:09;;;;;;;5.97;2.20;;;;;;;12.13;94.73;102483.50;5069027;28;20189;-71
2022/08/06 04:11:36;;;;;;;4.77;2.63;;;;;;;12.14;94.53;102482.72;5072227;28;20219;-71
2022/08/06 04:14:03;;;;;;;6.53;2.23;;;;;;;12.14;94.90;102490.44;5072439;28;20216;-70
2022/08/06 04:16:31;;;;;;;3.70;2.20;;;;;;;12.17;94.47;102490.53;5071907;28;20241;-72
2022/08/06 04:18:58;;;;;;;4.97;2.43;;;;;;;12.18;94.31;102497.44;5069281;28;20180;-71
2022/08/06 04:21:24;;;;;;;4.50;2.47;;;;;;;12.18;94.34;102500.00;5068792;28;20213;-71
2022/08/06 04:23:51;;;;;;;3.00;2.40;;;;;;;12.21;94.00;102502.69;5069316;28;20617;-71
2022/08/06 04:26:22;;;;;;;2.77;2.37;;;;;;;12.22;94.37;102499.28;5071969;28;20292;-72
2022/08/06 04:28:51;;;;;;;4.17;2.20;;;;;;;12.23;94.30;102505.31;5073125;28;20193;-71
2022/08/06 04:31:19;;;;;;;3.93;2.50;;;;;;;12.24;94.23;102515.66;5055244;28;20196;-71
2022/08/06 04:33:45;;;;;;;4.53;2.43;;;;;;;12.28;94.37;102516.63;5073214;28;20680;-71
2022/08/06 04:36:12;;;;;;;5.20;2.67;;;;;;;12.33;94.63;102516.00;5075931;28;20195;-72
2022/08/06 04:38:39;;;;;;;2.97;2.60;;;;;;;12.39;95.36;102523.09;5059982;28;20181;-72
2022/08/06 04:41:05;;;;;;;6.67;2.40;;;;;;;12.48;94.80;102523.41;5072984;28;20699;-71
2022/08/06 04:43:31;;;;;;;4.40;2.50;;;;;;;12.54;94.57;102532.25;5072960;28;20637;-71
2022/08/06 04:45:57;;;;;;;2.53;2.23;;;;;;;12.56;94.26;102532.31;5072790;28;20193;-71
2022/08/06 04:48:24;;;;;;;5.13;2.27;;;;;;;12.59;94.02;102527.28;5072520;28;20193;-71
2022/08/06 04:50:49;;;;;;;2.30;2.10;;;;;;;12.61;94.17;102539.38;5072421;28;20272;-71
2022/08/06 04:53:17;;;;;;;6.20;2.23;;;;;;;12.62;93.54;102538.56;5072565;28;20742;-70
2022/08/06 04:55:45;;;;;;;4.63;2.23;;;;;;;12.69;93.35;102537.09;5072687;28;20181;-72
2022/08/06 04:58:12;;;;;;;3.40;2.27;;;;;;;12.72;92.96;102550.09;5072353;28;20243;-71
2022/08/06 05:00:40;;;;;;;3.53;2.40;;;;;;;12.77;92.45;102549.41;5072426;28;20218;-72
2022/08/06 05:03:06;;;;;;;6.67;2.20;;;;;;;12.84;92.41;102546.28;5072410;28;20177;-71
2022/08/06 05:05:38;;;;;;;3.23;2.10;;;;;;;12.92;92.25;102554.25;5054287;28;20258;-71
2022/08/06 05:08:06;;;;;;;5.00;2.10;;;;;;;13.01;92.05;102554.63;5067830;28;20265;-71
2022/08/06 05:10:39;;;;;;;3.13;1.83;;;;;;;13.11;92.08;102556.72;5076642;28;20207;-70
2022/08/06 05:13:07;;;;;;;3.37;2.10;;;;;;;13.18;91.38;102560.41;5091127;28;20689;-71
2022/08/06 05:15:37;;;;;;;4.60;2.03;;;;;;;13.28;91.29;102563.38;5083909;28;20186;-71
2022/08/06 05:18:03;;;;;;;4.03;1.87;;;;;;;13.35;90.42;102572.19;5070116;28;20205;-72
2022/08/06 05:20:35;;;;;;;4.03;2.07;;;;;;;13.44;90.09;102575.94;5053795;28;20204;-72
2022/08/06 05:23:07;;;;;;;3.73;1.80;;;;;;;13.50;89.80;102577.88;5071993;28;20236;-70
2022/08/06 05:25:35;;;;;;;2.33;1.77;;;;;;;13.60;89.31;102582.50;5053619;28;20174;-71
2022/08/06 05:28:01;;;;;;;4.90;1.73;;;;;;;13.72;88.83;102582.94;5053881;28;20185;-72
2022/08/06 05:30:27;;;;;;;1.97;1.80;;;;;;;13.80;88.10;102589.22;5070436;28;20193;-72
2022/08/06 05:32:52;;;;;;;3.17;1.90;;;;;;;13.96;87.77;102591.50;5070184;28;20289;-72
2022/08/06 05:35:18;;;;;;;2.37;1.30;;;;;;;14.12;87.37;102591.16;5053354;28;20564;-71
2022/08/06 05:37:44;;;;;;;1.53;1.40;;;;;;;14.21;87.13;102592.41;5071182;28;20196;-71
2022/08/06 05:40:09;;;;;;;3.27;1.60;;;;;;;14.33;86.73;102594.50;5071848;28;20188;-72
2022/08/06 05:42:35;;;;;;;3.07;1.27;;;;;;;14.42;85.75;102598.25;5072064;28;20573;-72
2022/08/06 05:45:01;;;;;;;2.03;1.30;;;;;;;14.57;85.49;102598.72;5071606;28;20209;-71
2022/08/06 05:47:34;;;;;;;3.83;1.93;;;;;;;14.71;84.98;102607.78;5071782;28;20193;-69
2022/08/06 05:50:08;;;;;;;4.33;1.57;;;;;;;14.86;84.34;102597.03;5071409;28;20655;-71
2022/08/06 05:52:49;;;;;;;3.57;1.13;;;;;;;14.90;83.43;102597.19;5069025;28;20208;-71
2022/08/06 05:55:25;;;;;;;3.30;1.50;;;;;;;15.00;82.35;102594.03;5071686;28;20679;-71
2022/08/06 05:57:56;;;;;;;3.10;1.60;;;;;;;15.12;82.35;102598.69;5071434;28;20173;-71
2022/08/06 06:00:24;;;;;;;1.33;1.00;;;;;;;15.17;81.89;102597.09;5066104;28;20189;-71
2022/08/06 06:02:53;;;;;;;7.13;1.20;;;;;;;15.32;80.58;102597.53;5069533;28;20743;-71
2022/08/06 06:05:20;;;;;;;3.17;1.20;;;;;;;15.49;79.89;102602.41;5086946;28;20185;-71
2022/08/06 06:07:47;;;;;;;5.30;1.40;;;;;;;15.55;79.71;102593.91;5071082;28;20205;-70
2022/08/06 06:10:14;;;;;;;2.50;1.30;;;;;;;15.67;80.61;102592.56;5069654;28;20189;-72
2022/08/06 06:12:40;;;;;;;3.67;1.30;;;;;;;15.73;79.46;102591.84;5071086;28;20215;-72
2022/08/06 06:15:07;;;;;;;4.00;1.47;;;;;;;15.86;79.11;102599.97;5070920;28;20192;-72
2022/08/06 06:17:57;;;;;;;5.00;1.60;;;;;;;16.02;78.25;102596.91;5078977;28;20243;-71
2022/08/06 06:20:30;;;;;;;4.60;1.47;;;;;;;16.13;77.79;102600.66;5035303;28;20194;-71
2022/08/06 06:23:11;;;;;;;4.43;1.20;;;;;;;16.28;77.38;102598.44;5089450;28;20768;-71
2022/08/06 06:26:07;;;;;;;1.73;0.77;;;;;;;16.45;76.48;102604.06;5069510;28;20211;-71
2022/08/06 06:28:42;;;;;;;1.83;1.07;;;;;;;16.52;75.83;102608.53;5071338;28;20231;-73
2022/08/06 06:31:32;;;;;;;1.87;0.90;;;;;;;16.66;74.98;102602.84;5087982;28;20215;-72
2022/08/06 06:34:17;;;;;;;2.50;1.03;;;;;;;16.83;75.00;102606.69;5090393;28;20729;-72
2022/08/06 06:37:08;;;;;;;2.73;1.40;;;;;;;16.97;73.91;102602.69;5072453;28;20238;-73
2022/08/06 06:39:44;;;;;;;3.37;1.07;;;;;;;17.18;74.01;102599.69;5081406;28;20191;-73
2022/08/06 06:42:15;;;;;;;2.47;1.10;;;;;;;17.18;72.86;102599.69;5090663;28;20208;-72
2022/08/06 06:44:53;;;;;;;2.80;1.03;;;;;;;17.33;72.60;102611.22;5088483;28;20669;-72
2022/08/06 06:47:25;;;;;;;1.97;1.03;;;;;;;17.46;71.70;102607.19;5088633;28;20208;-73
2022/08/06 06:49:58;;;;;;;2.17;1.00;;;;;;;17.69;71.74;102606.78;5090407;28;20189;-70
2022/08/06 06:52:31;;;;;;;1.80;0.80;;;;;;;17.81;70.83;102601.81;5090135;28;20223;-72
2022/08/06 06:55:09;;;;;;;2.73;0.70;;;;;;;17.91;69.54;102606.31;5090639;28;20311;-71
2022/08/06 06:57:38;;;;;;;1.60;0.90;;;;;;;18.07;69.92;102610.06;5086446;28;20176;-73
2022/08/06 07:00:05;;;;;;;3.70;0.87;;;;;;;18.23;69.40;102605.16;5072799;28;20172;-71
2022/08/06 07:02:35;;;;;;;1.83;0.93;;;;;;;18.38;69.26;102607.19;5091415;28;20216;-73
2022/08/06 07:05:05;;;;;;;3.53;0.80;;;;;;;18.50;69.25;102613.41;5091071;28;20989;-71
2022/08/06 07:07:32;;;;;;;1.60;1.20;;;;;;;18.62;68.57;102624.00;5088434;28;20237;-73
2022/08/06 07:10:00;;;;;;;1.70;0.93;;;;;;;18.72;67.47;102617.22;5086323;28;20519;-73
2022/08/06 07:12:28;;;;;;;2.53;1.20;;;;;;;18.95;66.14;102619.28;5088484;28;20219;-72
2022/08/06 07:14:55;;;;;;;3.10;0.93;;;;;;;19.18;64.33;102619.59;5089582;28;20208;-71
2022/08/06 07:17:23;;;;;;;3.03;1.10;;;;;;;19.29;64.53;102625.81;5070858;28;20194;-72
2022/08/06 07:19:59;;;;;;;3.10;0.80;;;;;;;19.17;62.76;102629.09;5052940;28;20578;-73
2022/08/06 07:22:25;;;;;;;1.43;0.80;;;;;;;19.50;62.47;102629.56;5052498;28;20213;-73
2022/08/06 07:24:53;;;;;;;2.27;1.00;;;;;;;19.56;62.50;102640.03;5047737;28;20277;-73
2022/08/06 07:27:19;;;;;;;2.93;0.87;;;;;;;19.70;62.56;102633.25;5050379;28;20190;-73
2022/08/06 07:29:45;;;;;;;1.37;0.67;;;;;;;19.54;61.31;102635.66;5046702;28;20188;-71
2022/08/06 07:32:11;;;;;;;1.93;1.00;;;;;;;19.98;62.72;102639.59;5046598;28;20550;-71
2022/08/06 07:34:38;;;;;;;2.47;0.80;;;;;;;20.09;60.18;102638.00;5046490;28;20189;-73
2022/08/06 07:37:05;;;;;;;4.00;0.60;;;;;;;20.39;61.29;102636.53;5045265;28;20173;-73
2022/08/06 07:39:36;;;;;;;1.37;0.90;;;;;;;20.50;59.23;102641.84;5052688;28;20283;-73
2022/08/06 07:42:07;;;;;;;3.30;0.90;;;;;;;20.69;59.49;102649.78;5063412;28;20228;-71
2022/08/06 07:44:41;;;;;;;2.07;0.60;;;;;;;20.74;57.61;102649.81;5050384;28;20732;-74
2022/08/06 07:47:08;;;;;;;1.73;0.80;;;;;;;20.87;57.90;102642.09;5041479;28;20237;-73
2022/08/06 07:49:41;;;;;;;2.10;0.73;;;;;;;21.10;57.77;102634.44;5046229;28;20193;-73
2022/08/06 07:52:09;;;;;;;1.70;0.67;;;;;;;21.12;55.98;102648.34;5046748;28;20209;-73
2022/08/06 07:54:36;;;;;;;2.97;0.70;;;;;;;21.31;54.53;102642.34;5044181;28;20978;-71
2022/08/06 07:57:02;;;;;;;2.00;0.80;;;;;;;21.37;54.94;102652.84;5045277;28;20194;-70
2022/08/06 07:59:29;;;;;;;2.43;0.80;;;;;;;21.80;55.12;102650.41;5051627;28;20209;-71
2022/08/06 08:01:55;;;;;;;0.93;0.70;;;;;;;21.74;53.62;102657.34;5046087;28;20218;-73
2022/08/06 08:07:06;;;;;;;2.40;0.90;;;;;;;21.32;55.09;102650.19;5048384;28;20181;-71
2022/08/06 08:09:33;;;;;;;1.67;0.80;;;;;;;22.03;55.54;102653.06;5051560;28;20655;-71
2022/08/06 08:11:59;;;;;;;2.73;0.90;;;;;;;22.25;52.04;102654.81;5040561;28;20216;-72
2022/08/06 08:14:26;;;;;;;2.20;0.80;;;;;;;22.24;52.46;102653.06;5043703;28;20193;-73
2022/08/06 08:16:52;;;;;;;2.33;1.00;;;;;;;22.23;52.55;102651.31;5046446;28;20181;-73
2022/08/06 08:19:31;;;;;;;2.53;0.70;;;;;;;22.79;51.12;102652.19;5047499;28;20209;-70
2022/08/06 08:22:02;;;;;;;5.07;0.73;;;;;;;22.18;52.37;102647.84;5045564;28;20236;-72
2022/08/06 08:24:30;;;;;;;1.83;1.00;;;;;;;22.89;51.53;102651.31;5045583;28;20201;-74
2022/08/06 08:26:55;;;;;;;2.90;1.02;;;;;;;22.77;51.39;102653.06;5042493;28;20678;-73
2022/08/06 08:29:21;;;;;;;2.17;0.90;;;;;;;22.23;51.13;102660.91;5035607;28;20261;-72
2022/08/06 08:31:46;;;;;;;2.93;1.17;;;;;;;21.63;53.07;102662.50;5030443;28;20248;-71
2022/08/06 08:34:12;;;;;;;2.80;1.00;;;;;;;21.60;54.09;102661.63;5019053;28;20234;-72
2022/08/06 08:36:39;;;;;;;3.10;1.20;;;;;;;21.38;54.76;102673.66;5012022;28;20195;-72
2022/08/06 08:39:06;;;;;;;3.97;1.17;;;;;;;21.18;53.40;102670.09;5012008;28;20203;-72
2022/08/06 08:41:38;;;;;;;1.40;0.60;;;;;;;21.30;53.86;102669.28;5012075;28;20218;-71
2022/08/06 08:44:05;;;;;;;7.90;1.17;;;;;;;21.46;53.79;102673.72;5012169;28;20176;-72
2022/08/06 08:46:38;;;;;;;2.63;1.10;;;;;;;21.66;51.80;102667.69;5011567;28;20186;-71
2022/08/06 08:49:05;;;;;;;0.77;0.47;;;;;;;21.40;51.04;102676.28;5011896;28;20237;-72
2022/08/06 08:51:34;;;;;;;1.33;0.60;;;;;;;21.64;50.51;102681.59;5011791;28;20214;-71
2022/08/06 08:54:03;;;;;;;2.70;0.80;;;;;;;21.72;50.92;102686.03;5010560;28;20183;-72
2022/08/06 08:56:30;;;;;;;2.10;0.80;;;;;;;21.73;50.39;102684.28;5011708;28;20193;-73
2022/08/06 08:58:56;;;;;;;1.17;0.63;;;;;;;21.70;49.31;102690.34;5026517;28;20295;-73
2022/08/06 09:01:22;;;;;;;0.50;0.50;;;;;;;21.96;49.51;102691.31;5025646;28;20288;-73
2022/08/06 09:03:48;;;;;;;2.87;0.80;;;;;;;22.03;49.98;102692.19;5028933;28;20407;-72
2022/08/06 09:06:13;;;;;;;1.87;0.70;;;;;;;22.52;48.81;102688.81;5030831;28;20189;-70
2022/08/06 09:08:40;;;;;;;1.40;0.60;;;;;;;22.68;47.26;102694.88;5030292;28;20922;-72
2022/08/06 09:11:06;;;;;;;2.83;0.70;;;;;;;22.79;47.44;102696.63;5012748;28;20297;-72
2022/08/06 09:13:31;;;;;;;2.10;0.60;;;;;;;22.68;47.37;102685.31;5030989;28;20274;-71
2022/08/06 09:15:57;;;;;;;1.83;0.70;;;;;;;22.42;48.52;102690.50;5031063;28;20191;-74
2022/08/06 09:18:25;;;;;;;4.63;1.30;;;;;;;22.37;50.46;102698.34;5030674;28;20225;-73
2022/08/06 09:20:51;;;;;;;1.23;0.67;;;;;;;22.89;48.80;102684.41;5030815;28;20182;-72
2022/08/06 09:23:17;;;;;;;2.10;0.77;;;;;;;22.88;47.74;102680.91;5026426;28;20190;-72
2022/08/06 09:25:46;;;;;;;4.00;0.80;;;;;;;23.01;47.17;102681.78;5030764;28;20606;-73
2022/08/06 09:28:35;;;;;;;3.00;0.80;;;;;;;23.37;45.80;102677.34;5030398;28;20194;-71
2022/08/06 09:31:12;;;;;;;1.67;0.80;;;;;;;23.46;45.19;102687.78;5029438;28;20205;-73
2022/08/06 09:33:40;;;;;;;3.03;0.70;;;;;;;23.56;45.03;102681.63;5024814;28;20201;-76
2022/08/06 09:36:08;;;;;;;2.25;0.70;;;;;;;24.07;45.19;102685.75;5029955;28;20269;-74
2022/08/06 09:38:56;;;;;;;1.58;0.70;;;;;;;23.92;43.76;102689.34;5030509;28;20186;-74
2022/08/06 09:41:23;;;;;;;4.50;1.20;;;;;;;23.90;44.71;102680.59;5029982;28;20221;-74
2022/08/06 09:43:51;;;;;;;2.40;0.90;;;;;;;24.11;44.16;102688.34;5030648;28;20201;-73
2022/08/06 09:46:34;;;;;;;3.92;0.68;;;;;;;24.57;43.83;102680.97;5029231;28;20183;-70
2022/08/06 09:49:01;;;;;;;2.08;0.60;;;;;;;23.53;44.06;102686.84;5030831;28;20186;-72
2022/08/06 09:51:27;;;;;;;2.50;0.82;;;;;;;23.64;43.13;102692.06;5029164;28;20936;-71
2022/08/06 09:53:55;;;;;;;2.60;0.98;;;;;;;24.16;43.22;102681.31;5030431;28;20178;-72
2022/08/06 09:56:22;;;;;;;4.85;0.88;;;;;;;24.82;41.64;102683.41;5030267;28;21095;-74
2022/08/06 09:58:48;;;;;;;2.08;0.75;;;;;;;24.88;43.35;102682.47;5030267;28;20218;-73
2022/08/06 10:01:22;;;;;;;4.47;0.80;;;;;;;25.06;43.19;102683.19;5030293;28;20286;-73
2022/08/06 10:03:52;;;;;;;1.90;0.80;;;;;;;24.88;42.71;102687.72;5029271;28;20224;-71
2022/08/06 10:06:21;;;;;;;1.67;0.50;;;;;;;24.73;42.41;102691.34;4979504;28;20235;-73
2022/08/06 10:09:04;;;;;;;2.20;0.82;;;;;;;25.09;41.47;102693.59;4997492;28;20301;-74
2022/08/06 10:11:38;;;;;;;3.80;0.70;;;;;;;25.37;40.46;102696.84;4991925;28;20211;-74
2022/08/06 10:14:04;;;;;;;1.85;0.70;;;;;;;25.01;41.15;102690.19;5004480;28;20872;-73
2022/08/06 10:16:30;;;;;;;2.25;0.73;;;;;;;25.05;41.63;102688.44;5009908;28;20582;-72
2022/08/06 10:18:57;;;;;;;2.58;0.90;;;;;;;25.22;40.85;102699.59;5010200;28;20226;-72
2022/08/06 10:21:27;;;;;;;2.55;0.80;;;;;;;25.35;40.44;102691.59;5007973;28;20215;-73
2022/08/06 10:23:59;;;;;;;1.48;0.63;;;;;;;25.67;39.69;102694.72;5002873;28;20191;-74
2022/08/06 10:26:31;;;;;;;2.22;0.70;;;;;;;25.41;40.48;102695.94;5010084;28;20317;-75
2022/08/06 10:29:06;;;;;;;1.95;0.70;;;;;;;25.47;40.70;102688.81;5003729;28;20231;-73
2022/08/06 10:31:34;;;;;;;3.80;0.68;;;;;;;24.76;41.24;102691.34;4990525;28;20203;-73
2022/08/06 10:34:07;;;;;;;1.67;0.70;;;;;;;24.37;40.75;102690.75;4990208;28;20258;-73
2022/08/06 10:36:40;;;;;;;2.20;1.00;;;;;;;23.83;41.84;102697.19;4990328;28;20653;-73
2022/08/06 10:39:07;;;;;;;3.60;0.90;;;;;;;23.41;44.06;102700.00;4975585;28;20219;-70
2022/08/06 10:41:35;;;;;;;3.65;0.90;;;;;;;24.09;44.22;102695.34;4972256;28;20216;-73
2022/08/06 10:44:02;;;;;;;2.58;0.70;;;;;;;25.04;42.63;102690.16;4990409;28;20192;-73
2022/08/06 10:46:28;;;;;;;2.03;0.70;;;;;;;25.62;41.57;102686.03;4989915;28;20295;-73
2022/08/06 10:48:54;;;;;;;3.08;0.90;;;;;;;25.78;40.92;102690.16;4990276;28;20187;-73
2022/08/06 10:51:19;;;;;;;3.63;0.63;;;;;;;25.40;40.60;102694.16;4990291;28;20204;-73
2022/08/06 10:53:45;;;;;;;1.70;0.90;;;;;;;25.27;40.80;102692.59;4990081;28;20308;-73
2022/08/06 10:56:14;;;;;;;4.78;0.93;;;;;;;24.99;39.98;102691.97;4990172;28;20199;-73
2022/08/06 10:58:40;;;;;;;2.20;0.88;;;;;;;25.23;39.08;102688.22;4990138;28;20200;-71
2022/08/06 11:01:26;;;;;;;4.47;0.85;;;;;;;25.21;39.11;102679.50;5007861;28;20222;-73
2022/08/06 11:04:17;;;;;;;2.92;0.70;;;;;;;24.91;39.17;102675.44;5008633;28;20262;-72
2022/08/06 11:07:26;;;;;;;3.80;0.90;;;;;;;24.86;41.39;102674.63;5001445;28;20235;-73
2022/08/06 11:10:12;;;;;;;3.30;1.00;;;;;;;25.60;38.39;102664.16;4997567;28;20335;-73
2022/08/06 11:12:50;;;;;;;4.63;1.00;;;;;;;25.93;39.54;102671.59;4988625;28;20251;-72
2022/08/06 11:15:18;;;;;;;1.50;0.73;;;;;;;25.90;40.00;102655.88;4989872;28;20557;-72
2022/08/06 11:17:47;;;;;;;1.65;1.15;;;;;;;25.09;41.24;102658.66;4989465;28;20223;-73
2022/08/06 11:20:31;;;;;;;1.75;0.80;;;;;;;24.60;40.99;102667.91;4989972;28;20200;-72
2022/08/06 11:22:58;;;;;;;2.85;0.93;;;;;;;24.57;41.75;102667.88;4989753;28;20259;-73
2022/08/06 11:25:53;;;;;;;4.85;1.10;;;;;;;25.13;40.10;102663.84;4989783;28;20275;-73
2022/08/06 11:28:33;;;;;;;2.47;1.15;;;;;;;25.64;37.45;102657.13;4989728;28;20270;-73
2022/08/06 11:31:02;;;;;;;2.42;0.90;;;;;;;25.59;38.63;102653.66;4988544;28;20199;-72
2022/08/06 11:33:33;;;;;;;2.58;1.40;;;;;;;25.65;38.82;102659.72;4990059;28;20191;-72
2022/08/06 11:36:09;;;;;;;2.90;1.38;;;;;;;25.20;38.96;102654.16;4988620;28;20250;-73
2022/08/06 11:38:49;;;;;;;2.55;0.90;;;;;;;26.08;38.06;102655.63;4989248;28;20342;-73
2022/08/06 11:41:24;;;;;;;2.00;1.15;;;;;;;25.83;39.45;102659.47;4980533;28;20213;-72